sensor_id;sensor_type;location;lat;lon;timestamp;pressure;altitude;pressure_sealevel;temperature;humidity
61554;BME280;47425;51.976;5.326;2023-04-04T00:01:47;102895.44;;;4.56;46.21
61554;BME280;47425;51.976;5.326;2023-04-04T00:04:16;102897.97;;;4.54;46.48
61554;BME280;47425;51.976;5.326;2023-04-04T00:06:44;102897.78;;;4.49;46.47
61554;BME280;47425;51.976;5.326;2023-04-04T00:09:12;102907.59;;;4.34;47.26
61554;BME280;47425;51.976;5.326;2023-04-04T00:11:41;102905.50;;;4.25;47.24
61554;BME280;47425;51.976;5.326;2023-04-04T00:14:07;102896.91;;;4.26;47.53
61554;BME280;47425;51.976;5.326;2023-04-04T00:16:35;102898.91;;;4.33;47.41
61554;BME280;47425;51.976;5.326;2023-04-04T00:19:02;102898.97;;;4.35;47.43
61554;BME280;47425;51.976;5.326;2023-04-04T00:21:28;102901.16;;;4.24;47.69
61554;BME280;47425;51.976;5.326;2023-04-04T00:23:57;102900.09;;;4.19;47.88
61554;BME280;47425;51.976;5.326;2023-04-04T00:26:23;102896.16;;;4.29;48.11
61554;BME280;47425;51.976;5.326;2023-04-04T00:28:51;102885.38;;;4.41;47.73
61554;BME280;47425;51.976;5.326;2023-04-04T00:31:18;102887.19;;;4.43;47.59
61554;BME280;47425;51.976;5.326;2023-04-04T00:33:46;102882.59;;;4.36;47.46
61554;BME280;47425;51.976;5.326;2023-04-04T00:36:12;102887.66;;;4.33;47.73
61554;BME280;47425;51.976;5.326;2023-04-04T00:38:38;102884.31;;;4.35;47.84
61554;BME280;47425;51.976;5.326;2023-04-04T00:41:05;102874.09;;;4.40;47.78
61554;BME280;47425;51.976;5.326;2023-04-04T00:43:33;102874.50;;;4.51;47.96
61554;BME280;47425;51.976;5.326;2023-04-04T00:46:01;102870.16;;;4.50;47.55
61554;BME280;47425;51.976;5.326;2023-04-04T00:48:28;102870.91;;;4.47;47.49
61554;BME280;47425;51.976;5.326;2023-04-04T00:51:14;102858.97;;;4.52;48.04
61554;BME280;47425;51.976;5.326;2023-04-04T00:53:42;102864.50;;;4.62;47.93
61554;BME280;47425;51.976;5.326;2023-04-04T00:56:10;102868.94;;;4.64;47.58
61554;BME280;47425;51.976;5.326;2023-04-04T00:58:38;102873.16;;;4.61;47.08
61554;BME280;47425;51.976;5.326;2023-04-04T01:01:07;102870.63;;;4.40;47.57
61554;BME280;47425;51.976;5.326;2023-04-04T01:03:35;102871.13;;;4.31;47.86
61554;BME280;47425;51.976;5.326;2023-04-04T01:06:01;102862.91;;;4.41;48.26
61554;BME280;47425;51.976;5.326;2023-04-04T01:08:29;102864.00;;;4.48;47.65
61554;BME280;47425;51.976;5.326;2023-04-04T01:10:56;102871.19;;;4.55;48.06
61554;BME280;47425;51.976;5.326;2023-04-04T01:13:23;102871.38;;;4.60;47.44
61554;BME280;47425;51.976;5.326;2023-04-04T01:15:51;102869.53;;;4.57;47.29
61554;BME280;47425;51.976;5.326;2023-04-04T01:18:20;102858.91;;;4.51;47.25
61554;BME280;47425;51.976;5.326;2023-04-04T01:20:49;102857.03;;;4.47;47.45
61554;BME280;47425;51.976;5.326;2023-04-04T01:23:18;102856.59;;;4.34;47.71
61554;BME280;47425;51.976;5.326;2023-04-04T01:25:49;102863.19;;;4.26;47.70
61554;BME280;47425;51.976;5.326;2023-04-04T01:28:26;102861.66;;;4.31;48.16
61554;BME280;47425;51.976;5.326;2023-04-04T01:30:53;102854.25;;;4.41;48.06
61554;BME280;47425;51.976;5.326;2023-04-04T01:33:19;102857.00;;;4.45;47.56
61554;BME280;47425;51.976;5.326;2023-04-04T01:35:52;102851.81;;;4.45;47.67
61554;BME280;47425;51.976;5.326;2023-04-04T01:38:26;102855.06;;;4.40;47.71
61554;BME280;47425;51.976;5.326;2023-04-04T01:41:00;102849.75;;;4.36;48.03
61554;BME280;47425;51.976;5.326;2023-04-04T01:43:31;102851.50;;;4.37;47.90
61554;BME280;47425;51.976;5.326;2023-04-04T01:45:59;102863.19;;;4.26;47.72
61554;BME280;47425;51.976;5.326;2023-04-04T01:48:26;102857.13;;;4.03;48.45
61554;BME280;47425;51.976;5.326;2023-04-04T01:50:55;102861.59;;;3.84;48.27
61554;BME280;47425;51.976;5.326;2023-04-04T01:53:25;102859.13;;;3.66;49.04
61554;BME280;47425;51.976;5.326;2023-04-04T01:55:52;102860.03;;;3.67;49.39
61554;BME280;47425;51.976;5.326;2023-04-04T01:58:21;102859.63;;;3.79;49.45
61554;BME280;47425;51.976;5.326;2023-04-04T02:00:48;102861.91;;;3.71;49.11
61554;BME280;47425;51.976;5.326;2023-04-04T02:03:16;102861.16;;;3.52;49.29
61554;BME280;47425;51.976;5.326;2023-04-04T02:05:43;102868.53;;;3.43;49.76
61554;BME280;47425;51.976;5.326;2023-04-04T02:08:09;102867.50;;;3.40;50.08
61554;BME280;47425;51.976;5.326;2023-04-04T02:10:46;102869.22;;;3.39;49.68
61554;BME280;47425;51.976;5.326;2023-04-04T02:13:13;102862.34;;;3.40;50.01
61554;BME280;47425;51.976;5.326;2023-04-04T02:15:41;102860.81;;;3.45;49.67
61554;BME280;47425;51.976;5.326;2023-04-04T02:18:08;102862.53;;;3.44;49.68
61554;BME280;47425;51.976;5.326;2023-04-04T02:20:36;102866.16;;;3.48;50.02
61554;BME280;47425;51.976;5.326;2023-04-04T02:23:03;102860.00;;;3.46;50.10
61554;BME280;47425;51.976;5.326;2023-04-04T02:25:29;102865.81;;;3.40;50.07
61554;BME280;47425;51.976;5.326;2023-04-04T02:27:57;102870.09;;;3.40;50.03
61554;BME280;47425;51.976;5.326;2023-04-04T02:30:23;102862.28;;;3.38;50.09
61554;BME280;47425;51.976;5.326;2023-04-04T02:35:33;102864.22;;;3.44;50.12
61554;BME280;47425;51.976;5.326;2023-04-04T02:38:00;102858.28;;;3.46;50.37
61554;BME280;47425;51.976;5.326;2023-04-04T02:40:36;102862.59;;;3.46;49.77
61554;BME280;47425;51.976;5.326;2023-04-04T02:43:05;102864.31;;;3.45;50.44
61554;BME280;47425;51.976;5.326;2023-04-04T02:45:32;102863.47;;;3.46;49.84
61554;BME280;47425;51.976;5.326;2023-04-04T02:48:09;102862.94;;;3.53;50.29
61554;BME280;47425;51.976;5.326;2023-04-04T02:50:44;102861.25;;;3.56;50.08
61554;BME280;47425;51.976;5.326;2023-04-04T02:53:13;102857.00;;;3.56;49.73
61554;BME280;47425;51.976;5.326;2023-04-04T02:55:40;102850.03;;;3.55;49.96
61554;BME280;47425;51.976;5.326;2023-04-04T02:58:08;102847.63;;;3.60;50.13
61554;BME280;47425;51.976;5.326;2023-04-04T03:00:35;102844.59;;;3.70;50.08
61554;BME280;47425;51.976;5.326;2023-04-04T03:03:01;102847.22;;;3.72;50.00
61554;BME280;47425;51.976;5.326;2023-04-04T03:05:35;102835.25;;;3.74;49.52
61554;BME280;47425;51.976;5.326;2023-04-04T03:08:05;102840.66;;;3.80;49.82
61554;BME280;47425;51.976;5.326;2023-04-04T03:10:31;102835.06;;;3.92;49.95
61554;BME280;47425;51.976;5.326;2023-04-04T03:12:58;102830.34;;;4.04;49.53
61554;BME280;47425;51.976;5.326;2023-04-04T03:15:27;102829.28;;;4.22;49.53
61554;BME280;47425;51.976;5.326;2023-04-04T03:17:54;102832.78;;;4.45;50.16
61554;BME280;47425;51.976;5.326;2023-04-04T03:20:25;102838.50;;;4.60;49.43
61554;BME280;47425;51.976;5.326;2023-04-04T03:22:52;102837.69;;;4.61;48.76
61554;BME280;47425;51.976;5.326;2023-04-04T03:25:21;102836.34;;;4.48;48.35
61554;BME280;47425;51.976;5.326;2023-04-04T03:27:47;102835.50;;;4.25;48.48
61554;BME280;47425;51.976;5.326;2023-04-04T03:30:20;102845.53;;;3.95;48.89
61554;BME280;47425;51.976;5.326;2023-04-04T03:32:47;102843.72;;;3.69;49.02
61554;BME280;47425;51.976;5.326;2023-04-04T03:35:16;102842.63;;;3.64;49.31
61554;BME280;47425;51.976;5.326;2023-04-04T03:37:42;102838.91;;;3.58;49.45
61554;BME280;47425;51.976;5.326;2023-04-04T03:40:09;102836.25;;;3.56;49.94
61554;BME280;47425;51.976;5.326;2023-04-04T03:42:38;102830.50;;;3.63;49.87
61554;BME280;47425;51.976;5.326;2023-04-04T03:45:08;102827.53;;;3.75;50.07
61554;BME280;47425;51.976;5.326;2023-04-04T03:47:36;102833.84;;;3.82;50.12
61554;BME280;47425;51.976;5.326;2023-04-04T03:50:04;102828.38;;;3.76;49.69
61554;BME280;47425;51.976;5.326;2023-04-04T03:52:36;102821.19;;;3.90;49.99
61554;BME280;47425;51.976;5.326;2023-04-04T03:55:04;102823.94;;;4.17;50.76
61554;BME280;47425;51.976;5.326;2023-04-04T03:57:31;102824.66;;;4.35;49.72
61554;BME280;47425;51.976;5.326;2023-04-04T03:59:59;102827.44;;;4.42;49.35
61554;BME280;47425;51.976;5.326;2023-04-04T04:02:37;102828.38;;;4.19;48.58
61554;BME280;47425;51.976;5.326;2023-04-04T04:05:06;102832.13;;;4.05;49.05
61554;BME280;47425;51.976;5.326;2023-04-04T04:07:33;102825.16;;;4.04;49.53
61554;BME280;47425;51.976;5.326;2023-04-04T04:10:00;102830.31;;;4.02;49.16
61554;BME280;47425;51.976;5.326;2023-04-04T04:12:27;102830.91;;;3.95;49.51
61554;BME280;47425;51.976;5.326;2023-04-04T04:14:54;102829.34;;;3.78;49.29
61554;BME280;47425;51.976;5.326;2023-04-04T04:17:21;102830.59;;;3.66;49.30
61554;BME280;47425;51.976;5.326;2023-04-04T04:20:08;102838.72;;;3.53;49.61
61554;BME280;47425;51.976;5.326;2023-04-04T04:22:44;102838.31;;;3.44;49.84
61554;BME280;47425;51.976;5.326;2023-04-04T04:25:10;102834.06;;;3.44;50.39
61554;BME280;47425;51.976;5.326;2023-04-04T04:27:38;102841.88;;;3.46;49.92
61554;BME280;47425;51.976;5.326;2023-04-04T04:30:07;102842.94;;;3.30;50.51
61554;BME280;47425;51.976;5.326;2023-04-04T04:32:41;102834.59;;;3.16;50.67
61554;BME280;47425;51.976;5.326;2023-04-04T04:35:08;102838.47;;;3.06;50.77
61554;BME280;47425;51.976;5.326;2023-04-04T04:37:36;102826.91;;;2.98;51.29
61554;BME280;47425;51.976;5.326;2023-04-04T04:40:06;102833.69;;;2.94;51.39
61554;BME280;47425;51.976;5.326;2023-04-04T04:42:42;102839.69;;;2.93;51.14
61554;BME280;47425;51.976;5.326;2023-04-04T04:45:09;102837.34;;;2.99;51.28
61554;BME280;47425;51.976;5.326;2023-04-04T04:47:41;102828.91;;;3.04;51.56
61554;BME280;47425;51.976;5.326;2023-04-04T04:50:13;102840.25;;;3.07;51.44
61554;BME280;47425;51.976;5.326;2023-04-04T04:52:44;102838.63;;;3.09;51.03
61554;BME280;47425;51.976;5.326;2023-04-04T04:55:13;102838.63;;;3.09;51.50
61554;BME280;47425;51.976;5.326;2023-04-04T04:57:45;102839.72;;;3.14;51.23
61554;BME280;47425;51.976;5.326;2023-04-04T05:00:21;102844.97;;;3.16;51.10
61554;BME280;47425;51.976;5.326;2023-04-04T05:02:51;102848.31;;;3.13;50.98
61554;BME280;47425;51.976;5.326;2023-04-04T05:05:29;102847.97;;;3.06;51.25
61554;BME280;47425;51.976;5.326;2023-04-04T05:08:02;102846.19;;;3.05;51.18
61554;BME280;47425;51.976;5.326;2023-04-04T05:10:31;102857.16;;;2.99;51.53
61554;BME280;47425;51.976;5.326;2023-04-04T05:12:59;102859.81;;;3.00;51.63
61554;BME280;47425;51.976;5.326;2023-04-04T05:15:29;102859.41;;;2.91;51.19
61554;BME280;47425;51.976;5.326;2023-04-04T05:18:17;102853.19;;;2.86;51.77
61554;BME280;47425;51.976;5.326;2023-04-04T05:20:49;102854.94;;;2.87;51.49
61554;BME280;47425;51.976;5.326;2023-04-04T05:23:16;102855.53;;;2.81;51.94
61554;BME280;47425;51.976;5.326;2023-04-04T05:25:43;102853.19;;;2.86;52.06
61554;BME280;47425;51.976;5.326;2023-04-04T05:28:11;102850.91;;;2.94;52.01
61554;BME280;47425;51.976;5.326;2023-04-04T05:30:37;102859.75;;;2.99;51.78
61554;BME280;47425;51.976;5.326;2023-04-04T05:33:11;102850.63;;;3.07;51.79
61554;BME280;47425;51.976;5.326;2023-04-04T05:35:46;102855.44;;;3.19;51.46
61554;BME280;47425;51.976;5.326;2023-04-04T05:38:15;102848.69;;;3.23;51.33
61554;BME280;47425;51.976;5.326;2023-04-04T05:40:44;102851.81;;;3.15;51.32
61554;BME280;47425;51.976;5.326;2023-04-04T05:43:12;102844.00;;;3.14;51.65
61554;BME280;47425;51.976;5.326;2023-04-04T05:45:53;102847.63;;;3.17;51.55
61554;BME280;47425;51.976;5.326;2023-04-04T05:48:24;102843.31;;;3.18;51.82
61554;BME280;47425;51.976;5.326;2023-04-04T05:50:53;102853.06;;;3.24;51.84
61554;BME280;47425;51.976;5.326;2023-04-04T05:53:32;102854.97;;;3.28;51.48
61554;BME280;47425;51.976;5.326;2023-04-04T05:56:01;102855.50;;;3.21;51.71
61554;BME280;47425;51.976;5.326;2023-04-04T05:58:30;102863.44;;;3.04;51.65
61554;BME280;47425;51.976;5.326;2023-04-04T06:00:58;102852.38;;;3.28;54.48
61554;BME280;47425;51.976;5.326;2023-04-04T06:03:26;102869.88;;;3.33;52.46
61554;BME280;47425;51.976;5.326;2023-04-04T06:05:57;102868.72;;;3.27;51.89
61554;BME280;47425;51.976;5.326;2023-04-04T06:08:23;102866.53;;;3.16;51.96
61554;BME280;47425;51.976;5.326;2023-04-04T06:10:50;102860.22;;;3.10;52.16
61554;BME280;47425;51.976;5.326;2023-04-04T06:13:16;102867.22;;;3.12;52.36
61554;BME280;47425;51.976;5.326;2023-04-04T06:15:48;102863.63;;;3.09;52.47
61554;BME280;47425;51.976;5.326;2023-04-04T06:18:18;102856.75;;;3.09;52.42
61554;BME280;47425;51.976;5.326;2023-04-04T06:20:44;102851.00;;;3.16;52.31
61554;BME280;47425;51.976;5.326;2023-04-04T06:23:15;102854.69;;;3.22;52.17
61554;BME280;47425;51.976;5.326;2023-04-04T06:25:44;102856.72;;;3.29;52.74
61554;BME280;47425;51.976;5.326;2023-04-04T06:28:12;102848.94;;;3.50;52.68
61554;BME280;47425;51.976;5.326;2023-04-04T06:30:41;102852.41;;;3.72;52.41
61554;BME280;47425;51.976;5.326;2023-04-04T06:33:11;102851.28;;;3.86;52.04
61554;BME280;47425;51.976;5.326;2023-04-04T06:35:43;102862.88;;;3.96;51.43
61554;BME280;47425;51.976;5.326;2023-04-04T06:38:10;102852.06;;;4.06;51.60
61554;BME280;47425;51.976;5.326;2023-04-04T06:40:38;102852.22;;;4.11;50.78
61554;BME280;47425;51.976;5.326;2023-04-04T06:43:06;102854.25;;;4.18;50.98
61554;BME280;47425;51.976;5.326;2023-04-04T06:45:37;102861.88;;;4.37;50.50
61554;BME280;47425;51.976;5.326;2023-04-04T06:48:03;102871.28;;;4.34;50.43
61554;BME280;47425;51.976;5.326;2023-04-04T06:50:32;102863.66;;;4.39;50.12
61554;BME280;47425;51.976;5.326;2023-04-04T06:52:59;102868.44;;;4.50;50.12
61554;BME280;47425;51.976;5.326;2023-04-04T06:55:28;102871.84;;;4.49;49.64
61554;BME280;47425;51.976;5.326;2023-04-04T06:57:55;102883.00;;;4.47;49.67
61554;BME280;47425;51.976;5.326;2023-04-04T07:00:23;102878.59;;;4.68;50.42
61554;BME280;47425;51.976;5.326;2023-04-04T07:02:55;102882.88;;;4.91;49.76
61554;BME280;47425;51.976;5.326;2023-04-04T07:05:23;102884.97;;;4.77;48.93
61554;BME280;47425;51.976;5.326;2023-04-04T07:07:50;102891.31;;;4.85;49.66
61554;BME280;47425;51.976;5.326;2023-04-04T07:10:19;102896.00;;;4.95;48.77
61554;BME280;47425;51.976;5.326;2023-04-04T07:12:46;102896.91;;;4.96;48.40
61554;BME280;47425;51.976;5.326;2023-04-04T07:15:14;102889.28;;;5.26;48.50
61554;BME280;47425;51.976;5.326;2023-04-04T07:17:41;102895.09;;;5.43;48.08
61554;BME280;47425;51.976;5.326;2023-04-04T07:20:08;102898.13;;;5.57;47.61
61554;BME280;47425;51.976;5.326;2023-04-04T07:22:48;102888.63;;;6.11;49.66
61554;BME280;47425;51.976;5.326;2023-04-04T07:25:15;102888.88;;;6.47;48.78
61554;BME280;47425;51.976;5.326;2023-04-04T07:27:43;102885.66;;;6.86;48.01
61554;BME280;47425;51.976;5.326;2023-04-04T07:30:10;102881.03;;;6.78;46.32
61554;BME280;47425;51.976;5.326;2023-04-04T07:32:38;102878.44;;;6.78;47.34
61554;BME280;47425;51.976;5.326;2023-04-04T07:35:04;102879.34;;;7.45;49.08
61554;BME280;47425;51.976;5.326;2023-04-04T07:37:34;102885.66;;;7.88;46.78
61554;BME280;47425;51.976;5.326;2023-04-04T07:40:01;102882.84;;;8.19;47.30
61554;BME280;47425;51.976;5.326;2023-04-04T07:42:27;102889.28;;;8.75;47.03
61554;BME280;47425;51.976;5.326;2023-04-04T07:44:56;102892.53;;;9.07;46.47
61554;BME280;47425;51.976;5.326;2023-04-04T07:47:22;102884.47;;;9.44;46.48
61554;BME280;47425;51.976;5.326;2023-04-04T07:49:50;102885.09;;;9.81;45.88
61554;BME280;47425;51.976;5.326;2023-04-04T07:52:17;102885.81;;;10.30;46.18
61554;BME280;47425;51.976;5.326;2023-04-04T07:54:43;102879.56;;;10.89;45.66
61554;BME280;47425;51.976;5.326;2023-04-04T07:57:11;102877.25;;;11.17;43.67
61554;BME280;47425;51.976;5.326;2023-04-04T07:59:38;102884.25;;;11.20;43.66
61554;BME280;47425;51.976;5.326;2023-04-04T08:02:06;102881.84;;;11.43;43.58
61554;BME280;47425;51.976;5.326;2023-04-04T08:04:32;102875.09;;;11.71;43.70
61554;BME280;47425;51.976;5.326;2023-04-04T08:07:00;102872.72;;;12.08;43.54
61554;BME280;47425;51.976;5.326;2023-04-04T08:09:26;102875.16;;;11.84;39.13
61554;BME280;47425;51.976;5.326;2023-04-04T08:11:56;102871.81;;;10.97;39.81
61554;BME280;47425;51.976;5.326;2023-04-04T08:14:23;102874.56;;;11.14;42.57
61554;BME280;47425;51.976;5.326;2023-04-04T08:16:49;102875.00;;;11.61;43.24
61554;BME280;47425;51.976;5.326;2023-04-04T08:19:18;102876.69;;;11.54;39.02
61554;BME280;47425;51.976;5.326;2023-04-04T08:21:44;102884.44;;;10.57;39.17
61554;BME280;47425;51.976;5.326;2023-04-04T08:24:13;102876.06;;;10.20;40.71
61554;BME280;47425;51.976;5.326;2023-04-04T08:26:39;102873.84;;;10.48;43.01
61554;BME280;47425;51.976;5.326;2023-04-04T08:29:07;102877.03;;;10.97;40.96
61554;BME280;47425;51.976;5.326;2023-04-04T08:31:34;102870.13;;;10.33;38.54
61554;BME280;47425;51.976;5.326;2023-04-04T08:34:00;102868.44;;;9.77;38.68
61554;BME280;47425;51.976;5.326;2023-04-04T08:36:28;102862.75;;;9.48;39.44
61554;BME280;47425;51.976;5.326;2023-04-04T08:38:55;102871.69;;;9.62;40.40
61554;BME280;47425;51.976;5.326;2023-04-04T08:41:22;102868.06;;;9.52;41.69
61554;BME280;47425;51.976;5.326;2023-04-04T08:43:50;102861.97;;;10.10;39.54
61554;BME280;47425;51.976;5.326;2023-04-04T08:46:20;102861.25;;;10.22;40.16
61554;BME280;47425;51.976;5.326;2023-04-04T08:48:47;102866.13;;;10.58;41.65
61554;BME280;47425;51.976;5.326;2023-04-04T08:51:15;102868.41;;;11.09;40.98
61554;BME280;47425;51.976;5.326;2023-04-04T08:54:03;102874.31;;;10.86;38.11
61554;BME280;47425;51.976;5.326;2023-04-04T08:56:31;102869.69;;;10.67;36.65
61554;BME280;47425;51.976;5.326;2023-04-04T08:58:58;102859.09;;;9.95;36.68
61554;BME280;47425;51.976;5.326;2023-04-04T09:01:26;102861.28;;;10.23;40.30
61554;BME280;47425;51.976;5.326;2023-04-04T09:03:54;102869.63;;;10.61;38.82
61554;BME280;47425;51.976;5.326;2023-04-04T09:06:21;102861.97;;;10.79;37.29
61554;BME280;47425;51.976;5.326;2023-04-04T09:08:48;102863.38;;;10.49;38.16
61554;BME280;47425;51.976;5.326;2023-04-04T09:11:19;102861.34;;;10.30;36.23
61554;BME280;47425;51.976;5.326;2023-04-04T09:13:47;102865.56;;;10.18;39.50
61554;BME280;47425;51.976;5.326;2023-04-04T09:16:15;102867.91;;;10.64;41.03
61554;BME280;47425;51.976;5.326;2023-04-04T09:18:42;102870.34;;;11.29;39.31
61554;BME280;47425;51.976;5.326;2023-04-04T09:21:10;102872.09;;;11.28;37.34
61554;BME280;47425;51.976;5.326;2023-04-04T09:23:37;102860.13;;;11.59;38.63
61554;BME280;47425;51.976;5.326;2023-04-04T09:26:04;102862.53;;;11.35;36.58
61554;BME280;47425;51.976;5.326;2023-04-04T09:28:33;102865.09;;;11.25;35.81
61554;BME280;47425;51.976;5.326;2023-04-04T09:31:02;102857.97;;;11.14;36.45
61554;BME280;47425;51.976;5.326;2023-04-04T09:33:30;102855.63;;;11.48;39.20
61554;BME280;47425;51.976;5.326;2023-04-04T09:35:57;102868.13;;;11.80;38.97
61554;BME280;47425;51.976;5.326;2023-04-04T09:38:26;102866.59;;;12.06;37.28
61554;BME280;47425;51.976;5.326;2023-04-04T09:40:53;102864.00;;;12.13;38.08
61554;BME280;47425;51.976;5.326;2023-04-04T09:43:20;102864.13;;;12.33;37.10
61554;BME280;47425;51.976;5.326;2023-04-04T09:45:47;102860.69;;;12.52;39.01
61554;BME280;47425;51.976;5.326;2023-04-04T09:48:20;102863.38;;;12.74;35.78
61554;BME280;47425;51.976;5.326;2023-04-04T09:50:51;102869.44;;;12.50;36.51
61554;BME280;47425;51.976;5.326;2023-04-04T09:53:18;102862.47;;;12.64;37.22
61554;BME280;47425;51.976;5.326;2023-04-04T09:58:31;102857.22;;;12.66;35.39
61554;BME280;47425;51.976;5.326;2023-04-04T10:01:00;102845.84;;;12.71;38.16
61554;BME280;47425;51.976;5.326;2023-04-04T10:03:29;102847.66;;;13.03;38.29
61554;BME280;47425;51.976;5.326;2023-04-04T10:05:58;102851.22;;;13.52;37.52
61554;BME280;47425;51.976;5.326;2023-04-04T10:08:25;102844.19;;;13.79;37.80
61554;BME280;47425;51.976;5.326;2023-04-04T10:10:54;102845.06;;;13.85;35.12
61554;BME280;47425;51.976;5.326;2023-04-04T10:13:21;102836.28;;;13.86;37.35
61554;BME280;47425;51.976;5.326;2023-04-04T10:15:50;102845.06;;;13.82;34.77
61554;BME280;47425;51.976;5.326;2023-04-04T10:18:17;102834.56;;;13.36;34.01
61554;BME280;47425;51.976;5.326;2023-04-04T10:20:46;102838.09;;;13.38;35.66
61554;BME280;47425;51.976;5.326;2023-04-04T10:23:15;102829.28;;;13.79;37.29
61554;BME280;47425;51.976;5.326;2023-04-04T10:25:42;102830.16;;;13.63;33.29
61554;BME280;47425;51.976;5.326;2023-04-04T10:28:10;102825.75;;;12.93;35.32
61554;BME280;47425;51.976;5.326;2023-04-04T10:30:38;102830.16;;;13.33;37.47
61554;BME280;47425;51.976;5.326;2023-04-04T10:33:08;102827.56;;;13.47;34.45
61554;BME280;47425;51.976;5.326;2023-04-04T10:35:52;102821.41;;;13.30;33.36
61554;BME280;47425;51.976;5.326;2023-04-04T10:38:23;102811.72;;;13.21;35.10
61554;BME280;47425;51.976;5.326;2023-04-04T10:40:51;102809.06;;;12.82;31.75
61554;BME280;47425;51.976;5.326;2023-04-04T10:43:19;102809.78;;;12.29;33.23
61554;BME280;47425;51.976;5.326;2023-04-04T10:45:50;102807.59;;;11.55;32.47
61554;BME280;47425;51.976;5.326;2023-04-04T10:48:17;102806.38;;;11.10;32.63
61554;BME280;47425;51.976;5.326;2023-04-04T10:50:45;102797.56;;;11.01;35.90
61554;BME280;47425;51.976;5.326;2023-04-04T10:53:14;102802.44;;;11.66;37.06
61554;BME280;47425;51.976;5.326;2023-04-04T10:55:41;102795.81;;;12.34;38.17
61554;BME280;47425;51.976;5.326;2023-04-04T10:58:10;102800.28;;;12.68;34.58
61554;BME280;47425;51.976;5.326;2023-04-04T11:00:56;102797.66;;;12.69;36.75
61554;BME280;47425;51.976;5.326;2023-04-04T11:03:24;102793.31;;;13.24;37.96
61554;BME280;47425;51.976;5.326;2023-04-04T11:05:51;102797.66;;;13.81;36.88
61554;BME280;47425;51.976;5.326;2023-04-04T11:08:27;102787.19;;;13.59;32.56
61554;BME280;47425;51.976;5.326;2023-04-04T11:10:54;102787.19;;;13.47;36.61
61554;BME280;47425;51.976;5.326;2023-04-04T11:13:24;102793.22;;;14.01;37.01
61554;BME280;47425;51.976;5.326;2023-04-04T11:15:52;102787.75;;;14.44;36.56
61554;BME280;47425;51.976;5.326;2023-04-04T11:18:20;102782.41;;;14.60;35.56
61554;BME280;47425;51.976;5.326;2023-04-04T11:20:47;102786.78;;;14.66;35.87
61554;BME280;47425;51.976;5.326;2023-04-04T11:23:15;102783.06;;;14.96;35.89
61554;BME280;47425;51.976;5.326;2023-04-04T11:25:55;102781.81;;;15.40;35.67
61554;BME280;47425;51.976;5.326;2023-04-04T11:28:25;102771.41;;;15.22;32.44
61554;BME280;47425;51.976;5.326;2023-04-04T11:33:50;102768.44;;;14.41;32.17
61554;BME280;47425;51.976;5.326;2023-04-04T11:39:12;102755.53;;;13.79;31.65
61554;BME280;47425;51.976;5.326;2023-04-04T11:41:47;102755.59;;;13.61;32.79
61554;BME280;47425;51.976;5.326;2023-04-04T11:44:16;102750.34;;;13.50;33.89
61554;BME280;47425;51.976;5.326;2023-04-04T11:46:43;102756.44;;;13.69;35.26
61554;BME280;47425;51.976;5.326;2023-04-04T11:49:10;102757.09;;;14.22;36.33
61554;BME280;47425;51.976;5.326;2023-04-04T11:51:37;102743.66;;;14.73;35.80
61554;BME280;47425;51.976;5.326;2023-04-04T11:54:11;102754.38;;;14.42;30.96
61554;BME280;47425;51.976;5.326;2023-04-04T11:56:40;102752.00;;;13.85;34.26
61554;BME280;47425;51.976;5.326;2023-04-04T11:59:11;102744.81;;;14.24;34.97
61554;BME280;47425;51.976;5.326;2023-04-04T12:01:38;102743.75;;;14.53;33.87
61554;BME280;47425;51.976;5.326;2023-04-04T12:04:06;102736.72;;;14.55;33.11
61554;BME280;47425;51.976;5.326;2023-04-04T12:06:34;102736.69;;;14.63;34.26
61554;BME280;47425;51.976;5.326;2023-04-04T12:09:01;102735.66;;;14.85;35.26
61554;BME280;47425;51.976;5.326;2023-04-04T12:11:30;102743.25;;;15.21;33.86
61554;BME280;47425;51.976;5.326;2023-04-04T12:13:58;102740.38;;;15.44;34.57
61554;BME280;47425;51.976;5.326;2023-04-04T12:16:26;102730.44;;;15.68;34.66
61554;BME280;47425;51.976;5.326;2023-04-04T12:18:53;102731.97;;;15.92;33.94
61554;BME280;47425;51.976;5.326;2023-04-04T12:21:39;102714.16;;;16.06;31.46
61554;BME280;47425;51.976;5.326;2023-04-04T12:24:06;102716.38;;;15.67;33.93
61554;BME280;47425;51.976;5.326;2023-04-04T12:26:34;102715.81;;;15.40;29.78
61554;BME280;47425;51.976;5.326;2023-04-04T12:29:01;102707.16;;;15.21;34.34
61554;BME280;47425;51.976;5.326;2023-04-04T12:31:30;102706.16;;;15.36;31.37
61554;BME280;47425;51.976;5.326;2023-04-04T12:33:58;102702.47;;;14.49;28.70
61554;BME280;47425;51.976;5.326;2023-04-04T12:36:24;102700.28;;;13.70;30.95
61554;BME280;47425;51.976;5.326;2023-04-04T12:38:59;102701.19;;;13.55;30.16
61554;BME280;47425;51.976;5.326;2023-04-04T12:41:27;102696.84;;;13.23;29.19
61554;BME280;47425;51.976;5.326;2023-04-04T12:44:00;102692.47;;;13.40;31.49
61554;BME280;47425;51.976;5.326;2023-04-04T12:46:27;102691.44;;;13.82;33.85
61554;BME280;47425;51.976;5.326;2023-04-04T12:49:03;102687.13;;;13.65;30.17
61554;BME280;47425;51.976;5.326;2023-04-04T12:51:30;102687.13;;;13.57;32.12
61554;BME280;47425;51.976;5.326;2023-04-04T12:53:58;102687.91;;;13.83;34.27
61554;BME280;47425;51.976;5.326;2023-04-04T12:56:24;102677.16;;;14.24;33.79
61554;BME280;47425;51.976;5.326;2023-04-04T12:58:58;102676.19;;;14.39;33.33
61554;BME280;47425;51.976;5.326;2023-04-04T13:01:28;102676.16;;;14.44;30.59
61554;BME280;47425;51.976;5.326;2023-04-04T13:03:54;102667.50;;;14.25;33.68
61554;BME280;47425;51.976;5.326;2023-04-04T13:06:22;102673.47;;;14.49;32.49
61554;BME280;47425;51.976;5.326;2023-04-04T13:09:16;102668.03;;;14.76;33.84
61554;BME280;47425;51.976;5.326;2023-04-04T13:11:55;102669.44;;;15.12;33.81
61554;BME280;47425;51.976;5.326;2023-04-04T13:14:23;102662.16;;;15.35;32.55
61554;BME280;47425;51.976;5.326;2023-04-04T13:17:00;102659.41;;;15.46;33.30